createdAt,value
2018-10-02T00:00:58.935Z,6.75
2018-10-02T00:01:58.930Z,6.81
2018-10-02T00:02:58.922Z,6.79
2018-10-02T00:03:58.915Z,6.77
2018-10-02T00:04:58.910Z,6.75
2018-10-02T00:05:58.900Z,6.64
2018-10-02T00:06:58.893Z,6.70
2018-10-02T00:07:58.885Z,6.78
2018-10-02T00:08:58.877Z,6.66
2018-10-02T00:09:58.874Z,6.69
2018-10-02T00:10:58.864Z,6.69
2018-10-02T00:11:58.856Z,6.67
2018-10-02T00:12:58.850Z,6.59
2018-10-02T00:13:58.845Z,6.62
2018-10-02T00:14:58.833Z,6.69
2018-10-02T00:15:58.825Z,6.59
2018-10-02T00:16:58.818Z,6.63
2018-10-02T00:17:58.812Z,6.57
2018-10-02T00:18:58.803Z,6.59
2018-10-02T00:19:58.799Z,6.51
2018-10-02T00:20:58.796Z,6.51
2018-10-02T00:21:58.785Z,6.46
2018-10-02T00:22:58.783Z,6.51
2018-10-02T00:23:58.773Z,6.57
2018-10-02T00:24:58.769Z,6.54
2018-10-02T00:25:58.762Z,6.54
2018-10-02T00:26:59.530Z,6.56
2018-10-02T00:27:58.744Z,6.57
2018-10-02T00:28:58.733Z,6.44
2018-10-02T00:29:58.726Z,6.51
2018-10-02T00:30:58.713Z,6.56
2018-10-02T00:31:58.789Z,6.51
2018-10-02T00:32:58.705Z,6.54
2018-10-02T00:33:58.700Z,6.51
2018-10-02T00:34:58.691Z,6.49
2018-10-02T00:35:58.694Z,6.57
2018-10-02T00:36:58.678Z,6.60
2018-10-02T00:37:58.676Z,6.52
2018-10-02T00:38:58.664Z,6.56
2018-10-02T00:39:58.654Z,6.51
2018-10-02T00:40:58.645Z,6.54
2018-10-02T00:41:58.639Z,6.54
2018-10-02T00:42:58.632Z,6.52
2018-10-02T00:43:58.628Z,6.48
2018-10-02T00:44:58.619Z,6.49
2018-10-02T00:45:58.610Z,6.49
2018-10-02T00:46:58.610Z,6.46
2018-10-02T00:47:58.594Z,6.52
2018-10-02T00:48:58.588Z,6.51
2018-10-02T00:49:58.582Z,6.52
2018-10-02T00:50:58.575Z,6.42
2018-10-02T00:51:58.566Z,6.51
2018-10-02T00:52:58.554Z,6.52
2018-10-02T00:53:58.552Z,6.49
2018-10-02T00:54:58.544Z,6.46
2018-10-02T00:55:58.538Z,6.35
2018-10-02T00:56:58.532Z,6.49
2018-10-02T00:57:58.526Z,6.42
2018-10-02T00:58:58.513Z,6.35
2018-10-02T00:59:58.506Z,6.46
2018-10-02T01:00:58.499Z,6.39
2018-10-02T01:01:58.494Z,6.42
2018-10-02T01:02:58.488Z,6.31
2018-10-02T01:03:58.477Z,6.45
2018-10-02T01:04:58.471Z,6.38
2018-10-02T01:05:58.463Z,6.39
2018-10-02T01:06:58.460Z,6.44
2018-10-02T01:07:58.446Z,6.39
2018-10-02T01:08:58.441Z,6.39
2018-10-02T01:09:58.436Z,6.38
2018-10-02T01:10:58.424Z,6.33
2018-10-02T01:11:58.439Z,6.33
2018-10-02T01:12:58.413Z,6.31
2018-10-02T01:13:58.405Z,6.31
2018-10-02T01:14:58.397Z,6.31
2018-10-02T01:15:58.387Z,6.38
2018-10-02T01:16:58.390Z,6.28
2018-10-02T01:17:58.376Z,6.30
2018-10-02T01:18:58.365Z,6.27
2018-10-02T01:19:58.357Z,6.30
2018-10-02T01:20:58.350Z,6.30
2018-10-02T01:21:58.346Z,6.24
2018-10-02T01:22:58.336Z,6.28
2018-10-02T01:23:58.328Z,6.30
2018-10-02T01:24:58.324Z,6.31
2018-10-02T01:25:58.313Z,6.24
2018-10-02T01:26:58.307Z,6.28
2018-10-02T01:27:58.298Z,6.14
2018-10-02T01:28:58.292Z,6.11
2018-10-02T01:29:58.284Z,6.27
2018-10-02T01:30:58.277Z,6.20
2018-10-02T01:31:58.268Z,6.16
2018-10-02T01:32:58.261Z,6.24
2018-10-02T01:33:58.254Z,6.16
2018-10-02T01:34:58.246Z,6.07
2018-10-02T01:35:58.239Z,6.09
2018-10-02T01:36:58.244Z,6.12
2018-10-02T01:37:58.224Z,6.12
2018-10-02T01:38:58.216Z,6.12
2018-10-02T01:39:58.209Z,6.14
2018-10-02T01:40:58.207Z,6.14
2018-10-02T01:41:58.196Z,6.11
2018-10-02T01:42:58.189Z,6.11
2018-10-02T01:43:58.176Z,6.11
2018-10-02T01:44:58.174Z,5.99
2018-10-02T01:45:58.164Z,5.99
2018-10-02T01:46:58.160Z,5.99
2018-10-02T01:47:58.149Z,6.07
2018-10-02T01:48:58.143Z,6.01
2018-10-02T01:49:58.136Z,6.02
2018-10-02T01:50:58.129Z,6.01
2018-10-02T01:51:58.122Z,5.97
2018-10-02T01:52:58.108Z,5.98
2018-10-02T01:53:58.107Z,5.98
2018-10-02T01:54:58.098Z,5.97
2018-10-02T01:55:58.088Z,5.94
2018-10-02T01:56:58.081Z,5.98
2018-10-02T01:57:58.075Z,5.97
2018-10-02T01:58:58.067Z,6.02
2018-10-02T01:59:58.062Z,5.99
2018-10-02T02:00:58.050Z,6.05
2018-10-02T02:01:58.044Z,5.97
2018-10-02T02:02:58.038Z,5.97
2018-10-02T02:03:58.028Z,5.86
2018-10-02T02:04:58.020Z,5.91
2018-10-02T02:05:58.014Z,5.91
2018-10-02T02:06:58.005Z,5.91
2018-10-02T02:07:57.998Z,5.97
2018-10-02T02:08:57.991Z,5.98
2018-10-02T02:09:57.984Z,5.98
2018-10-02T02:10:57.977Z,5.94
2018-10-02T02:11:57.968Z,5.94
2018-10-02T02:12:57.963Z,5.98
2018-10-02T02:13:57.952Z,5.98
2018-10-02T02:14:57.945Z,5.94
2018-10-02T02:15:57.947Z,5.98
2018-10-02T02:16:57.937Z,5.97
2018-10-02T02:17:57.920Z,5.91
2018-10-02T02:18:57.920Z,6.05
2018-10-02T02:19:57.905Z,6.02
2018-10-02T02:20:57.897Z,6.05
2018-10-02T02:21:57.892Z,6.02
2018-10-02T02:22:57.887Z,6.01
2018-10-02T02:23:57.881Z,5.93
2018-10-02T02:24:57.869Z,5.99
2018-10-02T02:25:57.861Z,5.91
2018-10-02T02:26:57.850Z,5.99
2018-10-02T02:27:57.846Z,5.99
2018-10-02T02:28:57.835Z,5.93
2018-10-02T02:29:57.829Z,5.94
2018-10-02T02:30:57.826Z,5.91
2018-10-02T02:31:57.823Z,5.91
2018-10-02T02:32:57.812Z,5.90
2018-10-02T02:33:57.800Z,5.99
2018-10-02T02:34:57.795Z,5.93
2018-10-02T02:35:57.781Z,5.87
2018-10-02T02:36:57.780Z,5.93
2018-10-02T02:37:57.770Z,5.86
2018-10-02T02:38:57.761Z,5.89
2018-10-02T02:39:57.756Z,5.90
2018-10-02T02:40:57.741Z,5.79
2018-10-02T02:41:57.738Z,5.89
2018-10-02T02:42:57.730Z,5.76
2018-10-02T02:43:57.720Z,5.83
2018-10-02T02:44:57.715Z,5.83
2018-10-02T02:45:57.709Z,5.76
2018-10-02T02:46:57.695Z,5.73
2018-10-02T02:47:57.689Z,5.73
2018-10-02T02:48:57.683Z,5.84
2018-10-02T02:49:57.702Z,5.83
2018-10-02T02:50:57.666Z,5.84
2018-10-02T02:51:57.660Z,5.80
2018-10-02T02:52:57.653Z,5.86
2018-10-02T02:53:57.646Z,5.79
2018-10-02T02:54:57.645Z,5.82
2018-10-02T02:55:57.628Z,5.75
2018-10-02T02:56:57.626Z,5.84
2018-10-02T02:57:57.617Z,5.79
2018-10-02T02:58:57.607Z,5.76
2018-10-02T02:59:57.599Z,5.68
2018-10-02T03:00:57.592Z,5.82
2018-10-02T03:01:57.583Z,5.79
2018-10-02T03:02:57.575Z,5.76
2018-10-02T03:03:57.567Z,5.76
2018-10-02T03:04:57.560Z,5.80
2018-10-02T03:05:57.552Z,5.66
2018-10-02T03:06:57.545Z,5.71
2018-10-02T03:07:57.537Z,5.79
2018-10-02T03:08:57.535Z,5.72
2018-10-02T03:09:57.522Z,5.72
2018-10-02T03:10:57.515Z,5.75
2018-10-02T03:11:57.504Z,5.68
2018-10-02T03:12:57.498Z,5.68
2018-10-02T03:13:57.494Z,5.68
2018-10-02T03:14:57.482Z,5.73
2018-10-02T03:15:57.485Z,5.66
2018-10-02T03:16:57.466Z,5.71
2018-10-02T03:17:57.463Z,5.64
2018-10-02T03:18:57.453Z,5.61
2018-10-02T03:19:57.443Z,5.71
2018-10-02T03:20:57.436Z,5.71
2018-10-02T03:21:57.521Z,5.68
2018-10-02T03:22:57.426Z,5.71
2018-10-02T03:23:57.412Z,5.66
2018-10-02T03:24:57.408Z,5.69
2018-10-02T03:25:57.397Z,5.72
2018-10-02T03:26:57.393Z,5.66
2018-10-02T03:27:57.381Z,5.68
2018-10-02T03:28:57.375Z,5.73
2018-10-02T03:29:57.368Z,5.72
2018-10-02T03:30:57.388Z,5.75
2018-10-02T03:31:57.353Z,5.72
2018-10-02T03:32:57.347Z,5.73
2018-10-02T03:33:57.335Z,5.71
2018-10-02T03:34:57.327Z,5.64
2018-10-02T03:35:57.335Z,5.79
2018-10-02T03:36:57.315Z,5.72
2018-10-02T03:37:57.398Z,5.71
2018-10-02T03:38:57.296Z,5.71
2018-10-02T03:39:57.288Z,5.66
2018-10-02T03:40:57.285Z,5.64
2018-10-02T03:41:57.275Z,5.71
2018-10-02T03:42:57.266Z,5.76
2018-10-02T03:43:57.256Z,5.72
2018-10-02T03:44:57.248Z,5.73
2018-10-02T03:45:57.242Z,5.72
2018-10-02T03:46:57.234Z,5.72
2018-10-02T03:47:57.227Z,5.82
2018-10-02T03:48:57.285Z,5.68
2018-10-02T03:49:57.210Z,5.76
2018-10-02T03:50:57.211Z,5.64
2018-10-02T03:51:57.192Z,5.66
2018-10-02T03:52:57.187Z,5.73
2018-10-02T03:53:57.185Z,5.64
2018-10-02T03:54:57.175Z,5.66
2018-10-02T03:55:57.163Z,5.69
2018-10-02T03:56:57.160Z,5.59
2018-10-02T03:57:57.153Z,5.66
2018-10-02T03:58:57.138Z,5.71
2018-10-02T03:59:57.133Z,5.73
2018-10-02T04:00:57.128Z,5.79
2018-10-02T04:01:57.118Z,5.73
2018-10-02T04:02:57.208Z,5.84
2018-10-02T04:03:57.103Z,5.83
2018-10-02T04:04:57.093Z,5.73
2018-10-02T04:05:57.084Z,5.79
2018-10-02T04:06:57.074Z,5.68
2018-10-02T04:07:57.070Z,5.65
2018-10-02T04:08:57.064Z,5.71
2018-10-02T04:09:57.056Z,5.71
2018-10-02T04:10:57.048Z,5.69
2018-10-02T04:11:57.039Z,5.76
2018-10-02T04:12:57.047Z,5.76
2018-10-02T04:13:57.026Z,5.75
2018-10-02T04:14:57.019Z,5.73
2018-10-02T04:15:57.007Z,5.72
2018-10-02T04:16:57.005Z,5.75
2018-10-02T04:17:56.992Z,5.71
2018-10-02T04:18:56.986Z,5.68
2018-10-02T04:19:56.972Z,5.76
2018-10-02T04:20:56.970Z,5.69
2018-10-02T04:21:56.970Z,5.75
2018-10-02T04:22:56.957Z,5.71
2018-10-02T04:23:56.947Z,5.72
2018-10-02T04:24:56.944Z,5.71
2018-10-02T04:25:56.928Z,5.69
2018-10-02T04:26:56.925Z,5.68
2018-10-02T04:27:56.949Z,5.72
2018-10-02T04:28:56.905Z,5.69
2018-10-02T04:29:56.898Z,5.75
2018-10-02T04:30:56.887Z,5.66
2018-10-02T04:31:56.882Z,5.73
2018-10-02T04:32:56.875Z,5.72
2018-10-02T04:33:56.879Z,5.75
2018-10-02T04:34:56.862Z,5.68
2018-10-02T04:35:56.857Z,5.64
2018-10-02T04:36:56.844Z,5.65
2018-10-02T04:37:56.836Z,5.73
2018-10-02T04:38:56.830Z,5.71
2018-10-02T04:39:56.824Z,5.73
2018-10-02T04:40:56.809Z,5.59
2018-10-02T04:41:56.807Z,5.65
2018-10-02T04:42:56.813Z,5.61
2018-10-02T04:43:56.788Z,5.61
2018-10-02T04:44:56.785Z,5.56
2018-10-02T04:45:56.776Z,5.62
2018-10-02T04:46:56.874Z,5.72
2018-10-02T04:47:56.758Z,5.71
2018-10-02T04:48:56.747Z,5.66
2018-10-02T04:49:56.740Z,5.79
2018-10-02T04:50:56.736Z,5.79
2018-10-02T04:51:56.728Z,5.72
2018-10-02T04:52:56.721Z,5.79
2018-10-02T04:53:56.712Z,5.72
2018-10-02T04:54:56.723Z,5.83
2018-10-02T04:55:56.785Z,5.69
2018-10-02T04:56:56.689Z,5.71
2018-10-02T04:57:56.679Z,5.86
2018-10-02T04:58:56.673Z,5.73
2018-10-02T04:59:56.663Z,5.75
2018-10-02T05:00:56.654Z,5.68
2018-10-02T05:01:56.647Z,5.72
2018-10-02T05:02:56.641Z,5.69
2018-10-02T05:03:56.632Z,5.69
2018-10-02T05:04:56.624Z,5.64
2018-10-02T05:05:56.618Z,5.65
2018-10-02T05:06:56.611Z,5.66
2018-10-02T05:07:56.600Z,5.68
2018-10-02T05:08:56.591Z,5.65
2018-10-02T05:09:56.589Z,5.66
2018-10-02T05:10:56.584Z,5.73
2018-10-02T05:11:56.571Z,5.71
2018-10-02T05:12:56.563Z,5.69
2018-10-02T05:13:56.610Z,5.72
2018-10-02T05:14:56.547Z,5.73
2018-10-02T05:15:56.542Z,5.73
2018-10-02T05:16:56.529Z,5.73
2018-10-02T05:17:56.522Z,5.75
2018-10-02T05:18:56.514Z,5.82
2018-10-02T05:19:56.510Z,5.76
2018-10-02T05:20:56.511Z,5.79
2018-10-02T05:21:56.489Z,5.80
2018-10-02T05:22:56.494Z,5.83
2018-10-02T05:23:56.475Z,5.76
2018-10-02T05:24:56.467Z,5.80
2018-10-02T05:25:56.457Z,5.89
2018-10-02T05:26:56.457Z,5.86
2018-10-02T05:27:56.446Z,5.89
2018-10-02T05:28:56.438Z,5.90
2018-10-02T05:29:56.430Z,5.90
2018-10-02T05:30:56.420Z,5.87
2018-10-02T05:31:56.412Z,5.87
2018-10-02T05:32:56.414Z,5.90
2018-10-02T05:33:56.399Z,5.87
2018-10-02T05:34:56.432Z,5.99
2018-10-02T05:35:56.381Z,5.97
2018-10-02T05:36:56.373Z,6.04
2018-10-02T05:37:56.366Z,5.99
2018-10-02T05:38:56.357Z,5.97
2018-10-02T05:39:56.351Z,5.99
2018-10-02T05:40:56.341Z,6.04
2018-10-02T05:41:56.336Z,6.09
2018-10-02T05:42:56.328Z,6.11
2018-10-02T05:43:56.326Z,6.16
2018-10-02T05:44:56.315Z,6.11
2018-10-02T05:45:56.302Z,6.19
2018-10-02T05:46:56.296Z,6.26
2018-10-02T05:47:56.287Z,6.35
2018-10-02T05:48:56.281Z,6.36
2018-10-02T05:49:56.276Z,6.45
2018-10-02T05:50:56.265Z,6.42
2018-10-02T05:51:57.019Z,6.51
2018-10-02T05:52:56.250Z,6.67
2018-10-02T05:53:56.241Z,6.69
2018-10-02T05:54:56.248Z,6.77
2018-10-02T05:55:56.231Z,6.79
2018-10-02T05:56:56.219Z,6.78
2018-10-02T05:57:56.212Z,6.81
2018-10-02T05:58:56.201Z,6.75
2018-10-02T05:59:56.201Z,6.79
2018-10-02T06:00:56.189Z,6.79
2018-10-02T06:01:56.180Z,6.70
2018-10-02T06:02:56.177Z,6.60
2018-10-02T06:03:56.227Z,6.66
2018-10-02T06:04:56.157Z,6.62
2018-10-02T06:05:56.151Z,6.60
2018-10-02T06:06:56.143Z,6.74
2018-10-02T06:07:56.131Z,6.81
2018-10-02T06:08:56.129Z,6.82
2018-10-02T06:09:56.141Z,6.79
2018-10-02T06:10:56.116Z,6.82
2018-10-02T06:11:56.107Z,6.87
2018-10-02T06:12:56.100Z,6.87
2018-10-02T06:13:56.092Z,6.88
2018-10-02T06:14:56.084Z,6.97
2018-10-02T06:15:56.076Z,7.13
2018-10-02T06:16:56.073Z,7.14
2018-10-02T06:17:56.072Z,7.24
2018-10-02T06:18:56.057Z,7.29
2018-10-02T06:19:56.053Z,7.35
2018-10-02T06:20:56.041Z,7.53
2018-10-02T06:21:56.032Z,7.57
2018-10-02T06:22:56.031Z,7.63
2018-10-02T06:23:56.019Z,8.03
2018-10-02T06:24:56.018Z,8.55
2018-10-02T06:25:56.006Z,8.89
2018-10-02T06:26:56.005Z,8.88
2018-10-02T06:27:55.987Z,8.92
2018-10-02T06:28:55.988Z,9.00
2018-10-02T06:29:55.978Z,9.23
2018-10-02T06:30:56.600Z,10.19
2018-10-02T06:31:55.967Z,10.71
2018-10-02T06:32:55.958Z,11.43
2018-10-02T06:33:55.951Z,11.72
2018-10-02T06:34:55.949Z,12.03
2018-10-02T06:35:55.937Z,11.69
2018-10-02T06:36:55.934Z,11.44
2018-10-02T06:37:56.005Z,11.37
2018-10-02T06:38:55.931Z,11.18
2018-10-02T06:39:55.918Z,11.19
2018-10-02T06:40:55.910Z,10.96
2018-10-02T06:41:55.907Z,11.47
2018-10-02T06:42:55.899Z,11.65
2018-10-02T06:43:55.890Z,11.12
2018-10-02T06:44:55.892Z,10.82
2018-10-02T06:45:55.881Z,10.67
2018-10-02T06:46:55.880Z,10.42
2018-10-02T06:47:55.872Z,10.34
2018-10-02T06:48:55.870Z,10.25
2018-10-02T06:49:55.860Z,10.20
2018-10-02T06:50:55.929Z,10.17
2018-10-02T06:51:55.986Z,10.25
2018-10-02T06:52:55.844Z,10.07
2018-10-02T06:53:55.841Z,9.94
2018-10-02T06:54:55.832Z,9.95
2018-10-02T06:55:55.828Z,9.91
2018-10-02T06:56:55.885Z,10.01
2018-10-02T06:57:55.829Z,9.94
2018-10-02T06:58:55.812Z,9.83
2018-10-02T06:59:55.806Z,9.95
2018-10-02T07:00:55.798Z,9.98
2018-10-02T07:01:55.796Z,9.97
2018-10-02T07:02:55.855Z,9.86
2018-10-02T07:03:55.782Z,10.09
2018-10-02T07:04:55.790Z,9.95
2018-10-02T07:05:55.783Z,10.10
2018-10-02T07:06:55.769Z,9.98
2018-10-02T07:07:55.762Z,9.89
2018-10-02T07:08:55.821Z,9.74
2018-10-02T07:09:55.752Z,9.86
2018-10-02T07:10:55.746Z,9.66
2018-10-02T07:11:55.739Z,9.59
2018-10-02T07:12:55.734Z,9.55
2018-10-02T07:13:55.731Z,9.54
2018-10-02T07:14:55.766Z,9.28
2018-10-02T07:15:55.721Z,9.36
2018-10-02T07:16:55.722Z,9.31
2018-10-02T07:17:55.709Z,9.22
2018-10-02T07:18:55.710Z,9.28
2018-10-02T07:19:55.700Z,9.29
2018-10-02T07:20:55.707Z,9.23
2018-10-02T07:21:55.686Z,9.29
2018-10-02T07:22:55.680Z,9.28
2018-10-02T07:23:55.675Z,9.26
2018-10-02T07:24:55.670Z,9.18
2018-10-02T07:25:55.660Z,9.28
2018-10-02T07:26:55.849Z,9.32
2018-10-02T07:27:56.707Z,9.36
2018-10-02T07:28:55.646Z,9.47
2018-10-02T07:29:55.640Z,9.44
2018-10-02T07:30:55.774Z,9.44
2018-10-02T07:31:55.630Z,9.47
2018-10-02T07:32:55.637Z,9.44
2018-10-02T07:33:55.666Z,9.56
2018-10-02T07:34:55.613Z,9.54
2018-10-02T07:35:55.608Z,9.59
2018-10-02T07:36:55.643Z,9.59
2018-10-02T07:37:56.116Z,9.69
2018-10-02T07:38:55.660Z,9.86
2018-10-02T07:39:55.586Z,9.89
2018-10-02T07:40:55.582Z,10.12
2018-10-02T07:41:55.637Z,10.07
2018-10-02T07:42:55.572Z,10.13
2018-10-02T07:43:55.567Z,9.99
2018-10-02T07:44:55.582Z,9.97
2018-10-02T07:45:55.553Z,9.98
2018-10-02T07:46:55.548Z,10.07
2018-10-02T07:47:55.652Z,9.99
2018-10-02T07:48:55.537Z,9.97
2018-10-02T07:49:55.530Z,9.76
2018-10-02T07:50:55.541Z,9.86
2018-10-02T07:51:55.520Z,9.76
2018-10-02T07:52:55.517Z,9.77
2018-10-02T07:53:55.587Z,9.83
2018-10-02T07:54:55.505Z,9.94
2018-10-02T07:55:55.500Z,10.01
2018-10-02T07:56:55.568Z,9.95
2018-10-02T07:57:55.491Z,9.98
2018-10-02T07:58:55.489Z,9.98
2018-10-02T07:59:55.537Z,10.09
2018-10-02T08:00:55.473Z,10.09
2018-10-02T08:01:55.467Z,10.26
2018-10-02T08:02:55.503Z,10.28
2018-10-02T08:03:55.455Z,10.38
2018-10-02T08:04:55.548Z,10.53
2018-10-02T08:05:55.465Z,10.63
2018-10-02T08:06:55.441Z,10.78
2018-10-02T08:07:55.435Z,10.74
2018-10-02T08:08:55.450Z,10.67
2018-10-02T08:09:55.427Z,10.69
2018-10-02T08:10:55.420Z,10.76
2018-10-02T08:11:55.513Z,10.87
2018-10-02T08:12:55.409Z,10.94
2018-10-02T08:13:55.405Z,11.02
2018-10-02T08:14:55.462Z,11.02
2018-10-02T08:15:55.397Z,10.96
2018-10-02T08:16:55.389Z,10.75
2018-10-02T08:17:55.405Z,10.72
2018-10-02T08:18:55.382Z,10.90
2018-10-02T08:19:55.417Z,10.89
2018-10-02T08:20:55.416Z,10.87
2018-10-02T08:21:55.365Z,10.97
2018-10-02T08:22:55.361Z,10.89
2018-10-02T08:23:55.376Z,10.81
2018-10-02T08:24:55.363Z,10.84
2018-10-02T08:25:55.345Z,10.92
2018-10-02T08:26:55.483Z,10.92
2018-10-02T08:27:55.335Z,11.14
2018-10-02T08:28:55.332Z,11.26
2018-10-02T08:29:56.133Z,11.26
2018-10-02T08:30:55.324Z,11.11
2018-10-02T08:31:55.321Z,11.18
2018-10-02T08:32:55.318Z,11.36
2018-10-02T08:33:55.320Z,11.05
2018-10-02T08:34:55.301Z,10.92
2018-10-02T08:35:55.462Z,11.11
2018-10-02T08:36:55.294Z,11.15
2018-10-02T08:37:55.290Z,11.22
2018-10-02T08:38:55.337Z,11.25
2018-10-02T08:39:55.283Z,11.35
2018-10-02T08:40:55.276Z,11.29
2018-10-02T08:41:55.314Z,11.35
2018-10-02T08:42:55.269Z,11.45
2018-10-02T08:43:55.329Z,11.60
2018-10-02T08:44:55.311Z,11.60
2018-10-02T08:45:55.256Z,11.65
2018-10-02T08:46:55.248Z,11.66
2018-10-02T08:47:55.316Z,11.65
2018-10-02T08:48:55.240Z,11.62
2018-10-02T08:49:55.235Z,11.59
2018-10-02T08:50:55.285Z,11.69
2018-10-02T08:51:55.282Z,11.70
2018-10-02T08:52:55.223Z,11.51
2018-10-02T08:53:55.263Z,11.60
2018-10-02T08:54:55.215Z,11.52
2018-10-02T08:55:55.210Z,11.37
2018-10-02T08:56:55.204Z,11.52
2018-10-02T08:57:55.209Z,11.55
2018-10-02T08:58:55.197Z,11.57
2018-10-02T08:59:55.193Z,11.59
2018-10-02T09:00:55.228Z,11.66
2018-10-02T09:01:55.192Z,11.60
2018-10-02T09:02:55.181Z,11.52
2018-10-02T09:03:55.172Z,11.68
2018-10-02T09:04:55.171Z,11.65
2018-10-02T09:05:55.165Z,11.50
2018-10-02T09:06:55.195Z,11.51
2018-10-02T09:07:55.160Z,11.47
2018-10-02T09:08:55.152Z,11.45
2018-10-02T09:09:55.151Z,11.44
2018-10-02T09:10:55.143Z,11.45
2018-10-02T09:11:55.144Z,11.59
2018-10-02T09:12:55.175Z,11.66
2018-10-02T09:13:55.156Z,11.59
2018-10-02T09:14:55.128Z,11.68
2018-10-02T09:15:55.332Z,11.70
2018-10-02T09:16:55.129Z,11.68
2018-10-02T09:17:55.114Z,11.65
2018-10-02T09:18:55.179Z,11.72
2018-10-02T09:19:55.110Z,11.68
2018-10-02T09:20:55.165Z,11.95
2018-10-02T09:21:55.112Z,11.91
2018-10-02T09:22:55.092Z,11.90
2018-10-02T09:23:55.124Z,12.04
2018-10-02T09:24:55.132Z,12.22
2018-10-02T09:25:55.085Z,12.40
2018-10-02T09:26:55.075Z,12.42
2018-10-02T09:27:55.133Z,12.39
2018-10-02T09:28:55.072Z,12.27
2018-10-02T09:29:55.065Z,12.27
2018-10-02T09:30:55.176Z,12.43
2018-10-02T09:31:55.054Z,12.42
2018-10-02T09:32:55.050Z,12.28
2018-10-02T09:33:55.090Z,12.25
2018-10-02T09:34:55.049Z,12.32
2018-10-02T09:35:55.038Z,12.28
2018-10-02T09:36:55.060Z,12.36
2018-10-02T09:37:55.032Z,12.21
2018-10-02T09:38:55.030Z,12.31
2018-10-02T09:39:55.057Z,12.39
2018-10-02T09:40:55.018Z,12.40
2018-10-02T09:41:55.025Z,12.35
2018-10-02T09:42:55.061Z,12.43
2018-10-02T09:43:55.044Z,12.13
2018-10-02T09:44:55.005Z,12.24
2018-10-02T09:45:55.045Z,12.21
2018-10-02T09:46:55.000Z,12.17
2018-10-02T09:47:54.995Z,12.35
2018-10-02T09:48:55.004Z,12.45
2018-10-02T09:49:55.010Z,12.25
2018-10-02T09:50:55.002Z,12.28
2018-10-02T09:51:54.977Z,12.24
2018-10-02T09:52:54.974Z,12.21
2018-10-02T09:53:54.969Z,12.27
2018-10-02T09:54:55.025Z,12.27
2018-10-02T09:55:54.962Z,12.31
2018-10-02T09:56:55.032Z,12.22
2018-10-02T09:57:54.957Z,12.02
2018-10-02T09:58:54.962Z,12.12
2018-10-02T09:59:54.948Z,12.02
2018-10-02T10:00:54.954Z,12.13
2018-10-02T10:01:54.942Z,12.15
2018-10-02T10:02:54.952Z,12.17
2018-10-02T10:03:54.933Z,12.17
2018-10-02T10:04:54.928Z,12.20
2018-10-02T10:05:54.925Z,12.18
2018-10-02T10:06:54.921Z,12.20
2018-10-02T10:07:54.917Z,12.10
2018-10-02T10:08:54.914Z,12.13
2018-10-02T10:09:54.913Z,12.10
2018-10-02T10:10:54.905Z,12.22
2018-10-02T10:11:54.965Z,12.27
2018-10-02T10:12:54.898Z,12.22
2018-10-02T10:13:54.895Z,12.37
2018-10-02T10:14:54.892Z,12.29
2018-10-02T10:15:54.886Z,12.39
2018-10-02T10:16:54.945Z,12.40
2018-10-02T10:17:54.887Z,12.43
2018-10-02T10:18:54.875Z,12.18
2018-10-02T10:19:54.870Z,12.31
2018-10-02T10:20:54.868Z,12.21
2018-10-02T10:21:54.864Z,12.20
2018-10-02T10:22:54.918Z,12.24
2018-10-02T10:23:54.855Z,12.20
2018-10-02T10:24:54.853Z,12.21
2018-10-02T10:25:54.850Z,12.10
2018-10-02T10:26:54.846Z,12.18
2018-10-02T10:27:54.849Z,12.12
2018-10-02T10:28:54.884Z,12.12
2018-10-02T10:29:54.834Z,12.12
2018-10-02T10:30:54.829Z,12.00
2018-10-02T10:31:54.821Z,12.07
2018-10-02T10:32:54.820Z,12.10
2018-10-02T10:33:54.818Z,12.12
2018-10-02T10:34:54.863Z,12.04
2018-10-02T10:35:54.809Z,12.10
2018-10-02T10:36:54.806Z,12.04
2018-10-02T10:37:54.806Z,12.03
2018-10-02T10:38:54.797Z,12.00
2018-10-02T10:39:54.817Z,12.06
2018-10-02T10:40:54.844Z,12.07
2018-10-02T10:41:54.786Z,12.07
2018-10-02T10:42:54.789Z,12.04
2018-10-02T10:43:54.778Z,12.04
2018-10-02T10:44:54.772Z,12.02
2018-10-02T10:45:54.771Z,11.97
2018-10-02T10:46:54.833Z,12.02
2018-10-02T10:47:54.768Z,12.09
2018-10-02T10:48:54.758Z,12.12
2018-10-02T10:49:54.754Z,12.18
2018-10-02T10:50:54.749Z,12.13
2018-10-02T10:51:54.744Z,11.97
2018-10-02T10:52:54.805Z,12.04
2018-10-02T10:53:54.738Z,11.95
2018-10-02T10:54:54.732Z,11.90
2018-10-02T10:55:54.729Z,11.86
2018-10-02T10:56:54.725Z,11.86
2018-10-02T10:57:54.725Z,11.81
2018-10-02T10:58:54.772Z,11.80
2018-10-02T10:59:54.712Z,11.87
2018-10-02T11:00:54.708Z,11.90
2018-10-02T11:01:54.705Z,11.84
2018-10-02T11:02:54.776Z,11.80
2018-10-02T11:03:54.696Z,11.81
2018-10-02T11:04:54.752Z,11.84
2018-10-02T11:05:54.690Z,11.87
2018-10-02T11:06:54.685Z,11.80
2018-10-02T11:07:55.670Z,11.88
2018-10-02T11:08:54.676Z,11.90
2018-10-02T11:09:54.672Z,11.78
2018-10-02T11:10:54.668Z,11.84
2018-10-02T11:11:54.664Z,11.87
2018-10-02T11:12:55.176Z,11.70
2018-10-02T11:13:54.714Z,11.69
2018-10-02T11:14:54.652Z,11.72
2018-10-02T11:15:54.644Z,11.63
2018-10-02T11:16:54.643Z,11.48
2018-10-02T11:17:54.640Z,11.43
2018-10-02T11:18:54.638Z,11.36
2018-10-02T11:19:54.630Z,11.35
2018-10-02T11:20:54.624Z,11.32
2018-10-02T11:21:54.626Z,11.22
2018-10-02T11:22:54.620Z,11.22
2018-10-02T11:23:54.617Z,11.23
2018-10-02T11:24:54.615Z,11.19
2018-10-02T11:25:54.631Z,11.26
2018-10-02T11:26:54.604Z,11.25
2018-10-02T11:27:54.595Z,11.36
2018-10-02T11:28:54.591Z,11.25
2018-10-02T11:29:54.657Z,11.27
2018-10-02T11:30:54.585Z,11.30
2018-10-02T11:31:54.578Z,11.37
2018-10-02T11:32:54.578Z,11.35
2018-10-02T11:33:54.572Z,11.37
2018-10-02T11:34:54.569Z,11.37
2018-10-02T11:35:54.560Z,11.43
2018-10-02T11:36:54.559Z,11.44
2018-10-02T11:37:54.551Z,11.51
2018-10-02T11:38:54.547Z,11.57
2018-10-02T11:39:54.554Z,11.55
2018-10-02T11:40:54.538Z,11.68
2018-10-02T11:41:54.533Z,11.70
2018-10-02T11:42:54.534Z,11.69
2018-10-02T11:43:54.610Z,11.68
2018-10-02T11:44:54.621Z,11.69
2018-10-02T11:45:54.518Z,11.68
2018-10-02T11:46:54.516Z,11.66
2018-10-02T11:47:54.509Z,11.68
2018-10-02T11:48:54.505Z,11.80
2018-10-02T11:49:54.623Z,11.69
2018-10-02T11:50:54.557Z,11.80
2018-10-02T11:51:54.493Z,11.88
2018-10-02T11:52:54.490Z,11.94
2018-10-02T11:53:54.487Z,11.97
2018-10-02T11:54:54.481Z,12.03
2018-10-02T11:55:54.476Z,12.12
2018-10-02T11:56:54.471Z,12.06
2018-10-02T11:57:54.468Z,12.04
2018-10-02T11:58:54.466Z,11.86
2018-10-02T11:59:54.458Z,11.75
2018-10-02T12:00:54.532Z,11.75
2018-10-02T12:01:54.452Z,11.80
2018-10-02T12:02:54.443Z,11.77
2018-10-02T12:03:54.444Z,11.68
2018-10-02T12:04:54.439Z,11.68
2018-10-02T12:05:54.436Z,11.55
2018-10-02T12:06:54.471Z,11.41
2018-10-02T12:07:54.433Z,11.44
2018-10-02T12:08:54.494Z,11.50
2018-10-02T12:09:54.420Z,11.63
2018-10-02T12:10:54.417Z,11.52
2018-10-02T12:11:54.418Z,11.57
2018-10-02T12:12:54.436Z,11.72
2018-10-02T12:13:54.517Z,11.52
2018-10-02T12:14:54.456Z,11.51
2018-10-02T12:15:54.394Z,11.55
2018-10-02T12:16:54.391Z,11.65
2018-10-02T12:17:54.388Z,11.73
2018-10-02T12:18:54.391Z,11.65
2018-10-02T12:19:54.597Z,11.68
2018-10-02T12:20:54.372Z,11.69
2018-10-02T12:21:54.368Z,11.80
2018-10-02T12:22:54.367Z,11.83
2018-10-02T12:23:54.362Z,11.73
2018-10-02T12:24:54.355Z,11.69
2018-10-02T12:25:54.352Z,11.80
2018-10-02T12:26:54.349Z,11.66
2018-10-02T12:27:54.346Z,11.66
2018-10-02T12:28:54.338Z,11.62
2018-10-02T12:29:54.340Z,11.48
2018-10-02T12:30:54.336Z,11.52
2018-10-02T12:31:54.329Z,11.44
2018-10-02T12:32:54.320Z,11.40
2018-10-02T12:33:54.319Z,11.51
2018-10-02T12:34:54.314Z,11.44
2018-10-02T12:35:54.311Z,11.43
2018-10-02T12:36:54.305Z,11.43
2018-10-02T12:37:54.302Z,11.35
2018-10-02T12:38:54.327Z,11.43
2018-10-02T12:39:54.294Z,11.26
2018-10-02T12:40:54.290Z,11.22
2018-10-02T12:41:54.284Z,11.22
2018-10-02T12:42:54.280Z,11.23
2018-10-02T12:43:54.279Z,11.12
2018-10-02T12:44:54.274Z,11.12
2018-10-02T12:45:54.271Z,11.12
2018-10-02T12:46:54.307Z,11.05
2018-10-02T12:47:54.257Z,11.11
2018-10-02T12:48:54.254Z,10.96
2018-10-02T12:49:54.247Z,11.11
2018-10-02T12:50:54.245Z,11.11
2018-10-02T12:51:54.241Z,11.10
2018-10-02T12:52:54.409Z,10.89
2018-10-02T12:53:54.232Z,10.96
2018-10-02T12:54:54.228Z,10.89
2018-10-02T12:55:54.222Z,10.92
2018-10-02T12:56:54.217Z,10.97
2018-10-02T12:57:54.215Z,10.81
2018-10-02T12:58:54.205Z,10.87
2018-10-02T12:59:54.203Z,10.90
2018-10-02T13:00:54.198Z,10.86
2018-10-02T13:01:54.195Z,10.90
2018-10-02T13:02:54.189Z,10.90
2018-10-02T13:03:54.188Z,10.93
2018-10-02T13:04:54.180Z,10.92
2018-10-02T13:05:54.176Z,10.94
2018-10-02T13:06:54.199Z,10.89
2018-10-02T13:07:54.163Z,10.93